Tiempo atmosférico en la estación meteorológica de Buñol, València/Valencia (585 m.)



Fecha
DESCASC
Temp. máxima en grados centígrados (hora)
DESCASC
Temp. mínima en grados centígrados (hora)
DESCASC
Temp. media en grados centígrados
DESCASC
Racha de viento máxima en m/sg (hora)
DESCASC
Velocidad máxima media en intervalos de 10 minutos(hora)
DESCASC
Precipitaciones diarias en mm
DESCASC
Precipitaciones de 00:00 a 06:00 en mm
DESCASC
Precipitaciones de 06:00 a 12:00 en mm
DESCASC
Precipitaciones de 12:00 a 18:00 en mm
DESCASC
Precipitaciones de 18:00 a 24:00 en mm
DESCASC
18-01-2018 14.6 (15:40) 0.3 (08:00) 7.5 4.44 (22:20) 2.22 (22:50) 0 0 0 0 0
17-01-2018 17.4 (15:20) 1.3 (23:59) 9.3 12.22 (05:00) 6.11 (05:00) 0 0 0 0 0
16-01-2018 14 (15:20) 2.8 (06:50) 8.4 13.89 (12:00) 6.39 (07:30) 0 0 0 0 0
15-01-2018 11.7 (15:10) -1.3 (07:30) 5.2 9.17 (23:59) 3.89 (21:50) 0 0 0 0 0
14-01-2018 8.2 (15:40) -0.3 (00:00) 3.9 10.28 (02:00) 5 (11:40) 0 0 0 0 0
13-01-2018 10.9 (15:50) 0.2 (00:00) 5.5 12.78 (22:00) 5.28 (21:50) 0 0 0 0 0
12-01-2018 11.2 (15:50) 0.7 (00:00) 5.9 10 (01:30) 4.17 (01:20) 0 0 0 0 0
11-01-2018 9.7 (15:40) 2.6 (00:00) 6.1 13.61 (13:20) 6.11 (12:40) 0.2 0 0.2 0 0
10-01-2018 10.8 (13:40) 4.3 (00:00) 7.6 16.94 (14:40) 6.11 (14:40) 1.2 0 0 0 1.2
09-01-2018 7.8 (15:20) -0.6 (-00:0) 3.6 13.89 (14:10) 5.56 (14:10) 0 0 0 0 0
08-01-2018 10 (14:30) -0.2 (00:00) 4.9 3.61 (14:00) 1.67 (22:30) 0 0 0 0 0
07-01-2018 7.9 (16:00) 0.3 (00:00) 4.1 8.89 (00:40) 4.17 (00:40) 0 0 0 0 0
06-01-2018 10 (13:00) 2.9 (00:00) 6.5 10 (17:50) 4.72 (21:50) 11.8 0 0 5.2 6.6
05-01-2018 13.1 (15:30) 6.5 (00:00) 9.8 17.78 (12:10) 8.89 (12:40) 0 0 0 0 0
04-01-2018 13.9 (14:10) 9.8 (04:30) 11.8 17.5 (13:50) 8.61 (12:50) 0 0 0 0 0
03-01-2018 14.8 (15:30) 7.3 (00:00) 11.1 13.61 (13:30) 6.11 (11:10) 0 0 0 0 0
02-01-2018 12.8 (16:00) 6.6 (00:00) 9.7 16.11 (14:40) 6.94 (15:00) 0 0 0 0 0
01-01-2018 10.8 (14:00) 3.4 (00:00) 7.1 15.28 (15:20) 5.83 (15:40) 0 0 0 0 0
31-12-2017 13.5 (15:10) 4.8 (00:00) 9.2 16.39 (16:20) 6.67 (15:40) 0 0 0 0 0
30-12-2017 15.2 (12:50) 8.6 (00:00) 11.9 14.17 (16:30) 6.39 (06:10) 0 0 0 0 0
29-12-2017 14.8 (14:40) 7 (00:00) 10.9 15.83 (13:30) 5 (14:00) 0 0 0 0 0
28-12-2017 14.2 (13:50) 5.6 (00:00) 9.9 17.5 (14:20) 6.67 (16:30) 0 0 0 0 0
27-12-2017 11.2 (14:40) 5.9 (00:00) 8.5 17.5 (04:20) 6.67 (12:30) 3 2.6 0.4 0 0
26-12-2017 11 (12:30) 5.8 (00:00) 8.4 14.17 (13:20) 5.83 (14:20) 0.4 0 0.4 0 0
25-12-2017 7.1 (17:00) -0.4 (00:00) 3.3 8.89 (16:10) 4.17 (15:10) 0 0 0 0 0
24-12-2017 13.7 (15:30) 2 (00:00) 7.8 7.22 (12:00) 3.33 (07:00) 0 0 0 0 0

Gráficas

Temp. máximas Temp. mínimas Temp. medias Precipitaciones Rachas de viento máximas Velocidades máximas media en intervalos de 10 minutos

Datos horarios

Fecha y hora oficial Temperatura (ºC) Velocidad del viento (km/h) Dirección del viento Racha (km/h) Dirección de racha Precipitación (mm) Presión (hPa) Tendencia (hPa) Humedad (%)
2018-01-22 23:00:00 10.2 10 Noroeste 24 Noroeste 0 -- -- 71
2018-01-22 22:00:00 11.7 9 Norte 20 Norte 0 -- -- 67
2018-01-22 21:00:00 12.9 10 Norte 24 Norte 0 -- -- 63
2018-01-22 20:00:00 14.2 11 Noroeste 28 Norte 0 -- -- 59
2018-01-22 19:00:00 15.3 11 Norte 23 Noroeste 0 -- -- 55
2018-01-22 18:00:00 17 5 Noroeste 25 Noroeste 0 -- -- 50
2018-01-22 17:00:00 18.4 8 Noroeste 23 Oeste 0 -- -- 47
2018-01-22 16:00:00 19.5 8 Noroeste 26 Noroeste 0 -- -- 45
2018-01-22 15:00:00 18.8 14 Noroeste 31 Noroeste 0 -- -- 44
2018-01-22 14:00:00 17.8 13 Noroeste 30 Noroeste 0 -- -- 46
2018-01-22 13:00:00 15.3 15 Noroeste 30 Noroeste 0 -- -- 54
2018-01-22 12:00:00 13.1 14 Norte 36 Noroeste 0 -- -- 60
2018-01-22 11:00:00 10.5 18 Norte 41 Norte 0 -- -- 67
2018-01-22 10:00:00 8.2 15 Norte 33 Norte 0 -- -- 76
2018-01-22 09:00:00 6.8 18 Norte 35 Norte 0 -- -- 82
2018-01-22 08:00:00 7.2 14 Noroeste 38 Norte 0 -- -- 81
2018-01-22 07:00:00 7.8 17 Norte 37 Noroeste 0 -- -- 80
2018-01-22 06:00:00 7.7 17 Norte 32 Noroeste 0 -- -- 82
2018-01-22 05:00:00 8.3 15 Norte 32 Norte 0 -- -- 80
2018-01-22 04:00:00 8.8 10 Noroeste 25 Noroeste 0 -- -- 79
2018-01-22 03:00:00 9.2 12 Norte 24 Noroeste 0 -- -- 78
2018-01-22 02:00:00 9.8 11 Norte 24 Norte 0 -- -- 76
2018-01-22 01:00:00 9.8 7 Noroeste 18 Noroeste 0 -- -- 75
2018-01-22 00:00:00 9.5 7 Noroeste 17 Noroeste 0 -- -- 75
2018-01-21 23:00:00 10.5 6 Noroeste 13 Noroeste 0 -- -- 71
2018-01-21 22:00:00 10.6 9 Noroeste 15 Noroeste 0 -- -- 70
2018-01-21 21:00:00 11 5 Noroeste 11 Norte 0 -- -- 67
2018-01-21 20:00:00 12.8 5 Noroeste 11 Noroeste 0 -- -- 62
2018-01-21 19:00:00 14.1 3 Noroeste 12 Oeste 0 -- -- 58
2018-01-21 18:00:00 17.2 4 Oeste 22 Noroeste 0 -- -- 49
2018-01-21 17:00:00 19.2 8 Noroeste 28 Noroeste 0 -- -- 44
2018-01-21 16:00:00 19.9 13 Noroeste 39 Oeste 0 -- -- 42
2018-01-21 15:00:00 20.1 11 Noroeste 32 Noroeste 0 -- -- 43
2018-01-21 14:00:00 19.8 11 Noroeste 32 Oeste 0 -- -- 44
2018-01-21 13:00:00 17.5 13 Noroeste 31 Oeste 0 -- -- 51
2018-01-21 12:00:00 14.5 8 Noroeste 27 Oeste 0 -- -- 57
2018-01-21 11:00:00 11.8 12 Noroeste 28 Noroeste 0 -- -- 64
2018-01-21 10:00:00 9 11 Norte 25 Noroeste 0 -- -- 71
2018-01-21 09:00:00 7 9 Noroeste 29 Norte 0 -- -- 75
2018-01-21 08:00:00 6.7 10 Noroeste 28 Noroeste 0 -- -- 74
2018-01-21 07:00:00 7.3 13 Norte 35 Noroeste 0 -- -- 70
2018-01-21 06:00:00 7.8 15 Norte 29 Norte 0 -- -- 67
2018-01-21 05:00:00 7.9 7 Noroeste 34 Noroeste 0 -- -- 66
2018-01-21 04:00:00 8.6 14 Noroeste 36 Noroeste 0 -- -- 63
2018-01-21 03:00:00 9.1 10 Norte 28 Nordeste 0 -- -- 60
2018-01-21 02:00:00 9.6 11 Norte 28 Nordeste 0 -- -- 56
2018-01-21 01:00:00 10.4 10 Noroeste 30 Noroeste 0 -- -- 53
2018-01-21 00:00:00 10.8 12 Noroeste 26 Oeste 0 -- -- 52
2018-01-20 23:00:00 10.9 9 Noroeste 36 Noroeste 0 -- -- 50
2018-01-20 22:00:00 11.8 16 Noroeste 46 Noroeste 0 -- -- 47
2018-01-20 21:00:00 12.8 22 Noroeste 48 Noroeste 0 -- -- 43
2018-01-20 20:00:00 13.3 22 Noroeste 48 Oeste 0 -- -- 37
2018-01-20 19:00:00 13.5 12 Noroeste 31 Noroeste 0 -- -- 36
2018-01-20 18:00:00 14.7 8 Noroeste 30 Oeste 0 -- -- 36
2018-01-20 17:00:00 16.2 9 Noroeste 39 Oeste 0 -- -- 35
2018-01-20 16:00:00 15.8 8 Oeste 48 Noroeste 0 -- -- 40
2018-01-20 15:00:00 16.6 15 Noroeste 46 Noroeste 0 -- -- 35
2018-01-20 14:00:00 15.5 17 Noroeste 39 Noroeste 0 -- -- 40
2018-01-20 13:00:00 13.2 10 Noroeste 32 Noroeste 0 -- -- 51
2018-01-20 12:00:00 11.1 10 Noroeste 26 Noroeste 0 -- -- 53
2018-01-20 11:00:00 10.6 10 Noroeste 25 Noroeste 0 -- -- 53
2018-01-20 10:00:00 8.7 6 Norte 19 Norte 0 -- -- 60
2018-01-20 09:00:00 6.7 3 Oeste 13 Oeste 0 -- -- 63
2018-01-20 08:00:00 6.1 0 Calma 7 Norte 0 -- -- 62
2018-01-20 07:00:00 8.2 3 Norte 17 Noroeste 0 -- -- 56
2018-01-20 06:00:00 9.1 5 Noroeste 16 Noroeste 0 -- -- 54
2018-01-20 05:00:00 8.4 5 Noroeste 14 Noroeste 0 -- -- 63
2018-01-20 04:00:00 5.4 2 Norte 5 Noroeste 0 -- -- 77
2018-01-20 03:00:00 5.8 0 Calma 6 Sudeste 0 -- -- 75
2018-01-20 02:00:00 7.5 0 Calma 15 Noroeste 0 -- -- 70
2018-01-20 01:00:00 7.3 6 Noroeste 18 Noroeste 0 -- -- 73
2018-01-20 00:00:00 8 5 Noroeste 14 Noroeste 0 -- -- 70
2018-01-19 23:00:00 6.8 3 Noroeste 13 Noroeste 0 -- -- 69
2018-01-19 22:00:00 5.7 3 Norte 10 Norte 0 -- -- 70
2018-01-19 21:00:00 7 3 Norte 9 Noroeste 0 -- -- 63
2018-01-19 20:00:00 8.9 3 Noroeste 13 Noroeste 0 -- -- 56
2018-01-19 19:00:00 10.9 2 Noroeste 16 Norte 0 -- -- 49
2018-01-19 18:00:00 13.8 5 Norte 21 Norte 0 -- -- 43
2018-01-19 17:00:00 15.6 6 Noroeste 22 Noroeste 0 -- -- 38
2018-01-19 16:00:00 15.6 6 Noroeste 22 Oeste 0 -- -- 46
2018-01-19 15:00:00 15.8 6 Oeste 20 Oeste 0 -- -- 43
2018-01-19 14:00:00 14.3 3 Sur 10 Noroeste 0 -- -- 50
2018-01-19 13:00:00 13.2 3 Oeste 10 Oeste 0 -- -- 54
2018-01-19 12:00:00 11.3 3 Noroeste 15 Noroeste 0 -- -- 59
2018-01-19 11:00:00 8.5 4 Noroeste 11 Norte 0 -- -- 69
2018-01-19 10:00:00 5.6 3 Noroeste 12 Noroeste 0 -- -- 78
2018-01-19 09:00:00 3.6 8 Norte 14 Noroeste 0 -- -- 82
2018-01-19 08:00:00 3.8 4 Noroeste 16 Norte 0 -- -- 81
2018-01-19 07:00:00 4 4 Norte 12 Norte 0 -- -- 80
2018-01-19 06:00:00 4.8 4 Noroeste 15 Noroeste 0 -- -- 79
2018-01-19 05:00:00 4.1 9 Norte 18 Noroeste 0 -- -- 80
2018-01-19 04:00:00 4 5 Noroeste 14 Noroeste 0 -- -- 81
2018-01-19 03:00:00 3.7 6 Norte 14 Norte 0 -- -- 83
2018-01-19 02:00:00 3.6 4 Noroeste 12 Noroeste 0 -- -- 85
2018-01-19 01:00:00 3.6 4 Norte 10 Norte 0 -- -- 87
2018-01-19 00:00:00 4.6 2 Norte 14 Norte 0 -- -- 83
2018-01-18 23:00:00 4.6 7 Noroeste 16 Noroeste 0 -- -- 83
2018-01-18 22:00:00 4.5 4 Noroeste 10 Norte 0 -- -- 84
2018-01-18 21:00:00 5 2 Noroeste 12 Noroeste 0 -- -- 81
2018-01-18 20:00:00 6 4 Noroeste 12 Noroeste 0 -- -- 79
2018-01-18 19:00:00 7.6 2 Norte 7 Noroeste 0 -- -- 73
2018-01-18 18:00:00 10.9 0 Calma 5 Sur 0 -- -- 63
2018-01-18 17:00:00 13.4 3 Sur 11 Sur 0 -- -- 55
2018-01-18 16:00:00 14.5 4 Sur 9 Sur 0 -- -- 51
2018-01-18 15:00:00 14.3 3 Noroeste 8 Noroeste 0 -- -- 51
2018-01-18 14:00:00 13.6 3 Noroeste 12 Noroeste 0 -- -- 55
2018-01-18 13:00:00 12.7 4 Norte 12 Sur 0 -- -- 58
2018-01-18 12:00:00 11.2 4 Sudeste 11 Sudeste 0 -- -- 65
2018-01-18 11:00:00 6.9 3 Noroeste 11 Noroeste 0 -- -- 88
2018-01-18 10:00:00 2.9 3 Norte 9 Norte 0 -- -- 96
2018-01-18 09:00:00 0.5 3 Norte 8 Norte 0 -- -- 96
2018-01-18 08:00:00 0.3 3 Norte 7 Norte 0 -- -- 95
2018-01-18 07:00:00 0.5 3 Norte 7 Norte 0 -- -- 95
2018-01-18 06:00:00 0.7 3 Norte 8 Noroeste 0 -- -- 93
2018-01-18 05:00:00 0.8 2 Norte 8 Norte 0 -- -- 94
2018-01-18 04:00:00 1 3 Norte 9 Noroeste 0 -- -- 91
2018-01-18 03:00:00 1 3 Norte 8 Norte 0 -- -- 90
2018-01-18 02:00:00 0.7 4 Norte 9 Norte 0 -- -- 86
2018-01-18 01:00:00 0.7 2 Norte 8 Norte 0 -- -- 81
2018-01-18 00:00:00 1.3 3 Norte 8 Noroeste 0 -- -- 78
2018-01-17 23:00:00 2.3 0 Calma 8 Norte 0 -- -- 73
2018-01-17 22:00:00 3.8 4 Noroeste 10 Noroeste 0 -- -- 69
2018-01-17 21:00:00 5.1 4 Noroeste 11 Noroeste 0 -- -- 65
2018-01-17 20:00:00 7 4 Noroeste 14 Noroeste 0 -- -- 59
2018-01-17 19:00:00 9.4 5 Noroeste 9 Noroeste 0 -- -- 53
2018-01-17 18:00:00 13.6 2 Noroeste 14 Norte 0 -- -- 43
2018-01-17 17:00:00 16.5 7 Noroeste 15 Oeste 0 -- -- 35
2018-01-17 16:00:00 17.3 6 Oeste 24 Oeste 0 -- -- 34
2018-01-17 15:00:00 17.2 9 Oeste 26 Oeste 0 -- -- 40
2018-01-17 14:00:00 16.9 10 Noroeste 32 Oeste 0 -- -- 41
2018-01-17 13:00:00 15.7 8 Oeste 27 Noroeste 0 -- -- 49
2018-01-17 12:00:00 12.9 8 Noroeste 41 Oeste 0 -- -- 61
2018-01-17 11:00:00 10.6 16 Oeste 43 Noroeste 0 -- -- 65
2018-01-17 10:00:00 7.5 10 Noroeste 27 Noroeste 0 -- -- 78
2018-01-17 09:00:00 5.8 10 Norte 36 Norte 0 -- -- 86
2018-01-17 08:00:00 4.9 19 Noroeste 38 Noroeste 0 -- -- 91
2018-01-17 07:00:00 4.5 19 Noroeste 39 Noroeste 0 -- -- 93
2018-01-17 06:00:00 4.7 17 Norte 38 Norte 0 -- -- 92
2018-01-17 05:00:00 5.8 22 Norte 44 Norte 0 -- -- 88
2018-01-17 04:00:00 6.8 11 Noroeste 32 Noroeste 0 -- -- 85
2018-01-17 03:00:00 7 13 Noroeste 40 Noroeste 0 -- -- 84
2018-01-17 02:00:00 7.5 17 Noroeste 42 Noroeste 0 -- -- 82
2018-01-17 01:00:00 8.2 16 Noroeste 32 Noroeste 0 -- -- 79
2018-01-17 00:00:00 8.5 13 Noroeste 35 Oeste 0 -- -- 78
2018-01-16 23:00:00 9.1 15 Norte 39 Noroeste 0 -- -- 75
2018-01-16 22:00:00 9.3 14 Noroeste 35 Noroeste 0 -- -- 77
2018-01-16 21:00:00 9.3 16 Norte 39 Norte 0 -- -- 76
2018-01-16 20:00:00 10 19 Noroeste 44 Noroeste 0 -- -- 73
2018-01-16 19:00:00 10.6 16 Norte 40 Noroeste 0 -- -- 69
2018-01-16 18:00:00 11.8 13 Noroeste 42 Noroeste 0 -- -- 65
2018-01-16 17:00:00 13.3 14 Noroeste 40 Noroeste 0 -- -- 59
2018-01-16 16:00:00 13.7 16 Noroeste 38 Noroeste 0 -- -- 57
2018-01-16 15:00:00 13.6 15 Noroeste 41 Noroeste 0 -- -- 56
2018-01-16 14:00:00 12.3 16 Noroeste 47 Noroeste 0 -- -- 57
2018-01-16 13:00:00 10.8 18 Noroeste 49 Noroeste 0 -- -- 59
2018-01-16 12:00:00 9.3 17 Noroeste 50 Noroeste 0 -- -- 62
2018-01-16 11:00:00 7.6 15 Noroeste 39 Noroeste 0 -- -- 65
2018-01-16 10:00:00 5.4 17 Noroeste 38 Noroeste 0 -- -- 72
2018-01-16 09:00:00 3.7 15 Noroeste 37 Norte 0 -- -- 77
2018-01-16 08:00:00 2.8 15 Noroeste 46 Oeste 0 -- -- 80
2018-01-16 07:00:00 3 19 Noroeste 39 Noroeste 0 -- -- 79
2018-01-16 06:00:00 3.4 16 Norte 41 Norte 0 -- -- 77
2018-01-16 05:00:00 4.1 14 Noroeste 33 Noroeste 0 -- -- 74
2018-01-16 04:00:00 4.5 12 Noroeste 31 Noroeste 0 -- -- 71
2018-01-16 03:00:00 4.4 10 Norte 26 Noroeste 0 -- -- 70
2018-01-16 02:00:00 4.7 12 Noroeste 36 Noroeste 0 -- -- 71
2018-01-16 01:00:00 4.9 13 Noroeste 35 Oeste 0 -- -- 71
2018-01-16 00:00:00 5.3 14 Noroeste 33 Noroeste 0 -- -- 71
2018-01-15 23:00:00 5.4 14 Noroeste 30 Norte 0 -- -- 73
2018-01-15 22:00:00 5.5 12 Noroeste 26 Noroeste 0 -- -- 75
2018-01-15 21:00:00 6.4 7 Noroeste 23 Noroeste 0 -- -- 70
2018-01-15 20:00:00 6.9 8 Noroeste 22 Noroeste 0 -- -- 65
2018-01-15 19:00:00 7.5 6 Noroeste 14 Norte 0 -- -- 62
2018-01-15 18:00:00 8.8 4 Noroeste 15 Oeste 0 -- -- 57
2018-01-15 17:00:00 10.7 4 Oeste 18 Oeste 0 -- -- 50
2018-01-15 16:00:00 11.3 7 Oeste 21 Oeste 0 -- -- 47
2018-01-15 15:00:00 11.6 4 Oeste 15 Oeste 0 -- -- 48
2018-01-15 14:00:00 11.5 4 Sudoeste 11 Sudoeste 0 -- -- 49
2018-01-15 13:00:00 10.7 2 Sur 12 Noroeste 0 -- -- 51
2018-01-15 12:00:00 8.9 4 Oeste 11 Noroeste 0 -- -- 59
2018-01-15 11:00:00 6 5 Noroeste 12 Noroeste 0 -- -- 70
2018-01-15 10:00:00 1.5 4 Noroeste 13 Noroeste 0 -- -- 87
2018-01-15 09:00:00 -0.8 6 Noroeste 15 Norte 0 -- -- 92
2018-01-15 08:00:00 -1.2 4 Noroeste 13 Norte 0 -- -- 92
2018-01-15 07:00:00 -1.1 3 Norte 15 Norte 0 -- -- 91
2018-01-15 06:00:00 -0.6 3 Noroeste 13 Norte 0 -- -- 91
2018-01-15 05:00:00 -0.1 3 Noroeste 11 Noroeste 0 -- -- 90
2018-01-15 04:00:00 0.6 4 Noroeste 11 Noroeste 0 -- -- 88
2018-01-15 03:00:00 0.8 4 Noroeste 13 Norte 0 -- -- 87
2018-01-15 02:00:00 0.6 4 Noroeste 11 Noroeste 0 -- -- 89
2018-01-15 01:00:00 0.3 3 Noroeste 9 Norte 0 -- -- 89
2018-01-15 00:00:00 -0.2 3 Noroeste 11 Noroeste 0 -- -- 90
2018-01-14 23:00:00 0.1 5 Norte 11 Noroeste 0 -- -- 89
2018-01-14 22:00:00 0.9 4 Noroeste 9 Noroeste 0 -- -- 86
2018-01-14 21:00:00 2.3 4 Norte 13 Noroeste 0 -- -- 82
2018-01-14 20:00:00 3.1 5 Noroeste 12 Noroeste 0 -- -- 81
2018-01-14 19:00:00 4.3 3 Noroeste 7 Noroeste 0 -- -- 77
2018-01-14 18:00:00 6.3 3 Norte 11 Noroeste 0 -- -- 71
2018-01-14 17:00:00 7.8 3 Noroeste 16 Oeste 0 -- -- 65
2018-01-14 16:00:00 8.2 6 Oeste 18 Oeste 0 -- -- 63
2018-01-14 15:00:00 7.9 7 Noroeste 24 Noroeste 0 -- -- 66
2018-01-14 14:00:00 7.2 5 Noroeste 28 Noroeste 0 -- -- 72
2018-01-14 13:00:00 6.2 5 Norte 27 Noroeste 0 -- -- 76
2018-01-14 12:00:00 6 11 Noroeste 35 Noroeste 0 -- -- 79
2018-01-14 11:00:00 5.4 11 Noroeste 35 Noroeste 0 -- -- 82
2018-01-14 10:00:00 4.4 12 Noroeste 31 Norte 0 -- -- 87
2018-01-14 09:00:00 3.8 9 Noroeste 27 Noroeste 0 -- -- 85
2018-01-14 08:00:00 4.1 10 Noroeste 32 Noroeste 0 -- -- 83
2018-01-14 07:00:00 4.1 11 Norte 26 Oeste 0 -- -- 83
2018-01-14 06:00:00 3.9 10 Norte 21 Norte 0 -- -- 83
2018-01-14 05:00:00 4.2 9 Norte 29 Oeste 0 -- -- 80
2018-01-14 04:00:00 4.6 9 Noroeste 37 Oeste 0 -- -- 77
2018-01-14 03:00:00 4.8 7 Noroeste 33 Oeste 0 -- -- 79
2018-01-14 02:00:00 5.2 9 Noroeste 37 Noroeste 0 -- -- 82
2018-01-14 01:00:00 5.5 8 Noroeste 25 Oeste 0 -- -- 87
2018-01-14 00:00:00 5.5 6 Noroeste 26 Oeste 0 -- -- 90
2018-01-13 23:00:00 5.8 8 Oeste 45 Sudoeste 0 -- -- 89
2018-01-13 22:00:00 6.8 18 Oeste 46 Oeste 0 -- -- 79
2018-01-13 21:00:00 6 6 Oeste 18 Noroeste 0 -- -- 80
2018-01-13 20:00:00 7.4 8 Oeste 20 Oeste 0 -- -- 70
2018-01-13 19:00:00 7.7 0 Calma 6 Este 0 -- -- 63
2018-01-13 18:00:00 8.6 3 Oeste 13 Oeste 0 -- -- 57
2018-01-13 17:00:00 9.8 3 Oeste 22 Sudoeste 0 -- -- 48
2018-01-13 16:00:00 10.8 7 Noroeste 22 Oeste 0 -- -- 43
2018-01-13 15:00:00 10.2 3 Noroeste 11 Noroeste 0 -- -- 48
2018-01-13 14:00:00 10 0 Calma 11 Sudoeste 0 -- -- 52
2018-01-13 13:00:00 9.5 0 Calma 7 Noroeste 0 -- -- 55
2018-01-13 12:00:00 7.4 0 Calma 10 Norte 0 -- -- 66
2018-01-13 11:00:00 4.2 5 Noroeste 13 Norte 0 -- -- 81
2018-01-13 10:00:00 1.5 4 Noroeste 15 Norte 0 -- -- 89
2018-01-13 09:00:00 0.9 3 Noroeste 14 Noroeste 0 -- -- 90
2018-01-13 08:00:00 0.9 2 Noroeste 14 Noroeste 0 -- -- 89
2018-01-13 07:00:00 0.7 5 Noroeste 19 Norte 0 -- -- 89
2018-01-13 06:00:00 0.4 3 Norte 16 Noroeste 0 -- -- 89
2018-01-13 05:00:00 0.5 5 Noroeste 13 Noroeste 0 -- -- 88
2018-01-13 04:00:00 0.7 5 Noroeste 13 Noroeste 0 -- -- 88
2018-01-13 03:00:00 1 7 Norte 17 Noroeste 0 -- -- 87
2018-01-13 02:00:00 1.2 5 Noroeste 18 Noroeste 0 -- -- 86
2018-01-13 01:00:00 1.5 8 Noroeste 15 Noroeste 0 -- -- 85
2018-01-13 00:00:00 2.3 6 Norte 15 Norte 0 -- -- 82
2018-01-12 23:00:00 3 6 Norte 14 Norte 0 -- -- 80
2018-01-12 22:00:00 4.5 5 Norte 17 Noroeste 0 -- -- 75
2018-01-12 21:00:00 5.3 7 Noroeste 19 Norte 0 -- -- 72
2018-01-12 20:00:00 6.3 6 Noroeste 23 Norte 0 -- -- 69
2018-01-12 19:00:00 7.3 11 Norte 23 Norte 0 -- -- 67
2018-01-12 18:00:00 8.2 0 Calma 10 Oeste 0 -- -- 65
2018-01-12 17:00:00 10.3 5 Oeste 20 Noroeste 0 -- -- 58
2018-01-12 16:00:00 11.1 9 Oeste 29 Noroeste 0 -- -- 49
2018-01-12 15:00:00 11 9 Noroeste 28 Noroeste 0 -- -- 50
2018-01-12 14:00:00 10.3 12 Noroeste 30 Noroeste 0 -- -- 53
2018-01-12 13:00:00 8.9 10 Noroeste 24 Noroeste 0 -- -- 60
2018-01-12 12:00:00 7.6 9 Noroeste 24 Oeste 0 -- -- 64
2018-01-12 11:00:00 5.4 9 Noroeste 26 Noroeste 0 -- -- 70
2018-01-12 10:00:00 2.7 13 Norte 24 Noroeste 0 -- -- 77
2018-01-12 09:00:00 1.1 9 Norte 24 Norte 0 -- -- 82
2018-01-12 08:00:00 0.7 7 Noroeste 22 Norte 0 -- -- 83
2018-01-12 07:00:00 1.4 11 Norte 29 Noroeste 0 -- -- 80
2018-01-12 06:00:00 1.8 10 Noroeste 24 Noroeste 0 -- -- 78
2018-01-12 05:00:00 2.2 11 Norte 27 Noroeste 0 -- -- 76
2018-01-12 04:00:00 2.6 13 Norte 31 Norte 0 -- -- 75
2018-01-12 03:00:00 3 11 Noroeste 24 Noroeste 0 -- -- 73
2018-01-12 02:00:00 3.7 8 Noroeste 36 Noroeste 0 -- -- 70
2018-01-12 01:00:00 3.9 6 Norte 25 Noroeste 0 -- -- 68
2018-01-12 00:00:00 4.4 8 Norte 27 Noroeste 0 -- -- 66
2018-01-11 23:00:00 4.1 7 Noroeste 25 Norte 0 -- -- 67
2018-01-11 22:00:00 4.5 5 Noroeste 27 Noroeste 0 -- -- 65
2018-01-11 21:00:00 4.4 3 Noroeste 19 Oeste 0 -- -- 66
2018-01-11 20:00:00 5.1 5 Noroeste 16 Norte 0 -- -- 65
2018-01-11 19:00:00 6.2 3 Norte 19 Noroeste 0 -- -- 60
2018-01-11 18:00:00 7.6 4 Norte 27 Noroeste 0 -- -- 55
2018-01-11 17:00:00 9.1 13 Noroeste 39 Noroeste 0 -- -- 46
2018-01-11 16:00:00 9.5 18 Noroeste 40 Oeste 0 -- -- 45
2018-01-11 15:00:00 9.3 17 Noroeste 49 Noroeste 0 -- -- 51
2018-01-11 14:00:00 8.6 21 Noroeste 49 Noroeste 0 -- -- 58
2018-01-11 13:00:00 8.1 21 Noroeste 48 Oeste 0 -- -- 65
2018-01-11 12:00:00 6.9 13 Oeste 39 Noroeste 0 -- -- 75
2018-01-11 11:00:00 5.5 13 Noroeste 44 Oeste 0 -- -- 83
2018-01-11 10:00:00 4.2 10 Noroeste 42 Noroeste 0.2 -- -- 88
2018-01-11 09:00:00 3.1 9 Noroeste 26 Noroeste 0 -- -- 92
2018-01-11 08:00:00 2.9 8 Noroeste 35 Oeste 0 -- -- 89
2018-01-11 07:00:00 3.1 13 Noroeste 34 Oeste 0 -- -- 88
2018-01-11 06:00:00 2.8 9 Noroeste 28 Oeste 0 -- -- 85
2018-01-11 05:00:00 3.2 10 Norte 28 Norte 0 -- -- 82
2018-01-11 04:00:00 3.8 5 Norte 27 Norte 0 -- -- 79
2018-01-11 03:00:00 4.3 8 Noroeste 27 Noroeste 0 -- -- 80
2018-01-11 02:00:00 4.5 6 Noroeste 29 Noroeste 0 -- -- 86
2018-01-11 01:00:00 4.7 6 Noroeste 27 Noroeste 0 -- -- 89
2018-01-11 00:00:00 5.1 5 Noroeste 14 Noroeste 0 -- -- 92
2018-01-10 23:00:00 6.2 3 Noroeste 21 Noroeste 0 -- -- 93
2018-01-10 22:00:00 6.4 5 Noroeste 24 Noroeste 0.6 -- -- 94
2018-01-10 21:00:00 6.6 5 Noroeste 30 Noroeste 0.6 -- -- 92
2018-01-10 20:00:00 7.8 9 Noroeste 36 Noroeste 0 -- -- 78
2018-01-10 19:00:00 8.3 12 Noroeste 35 Oeste 0 -- -- 76
2018-01-10 18:00:00 7.8 8 Noroeste 39 Oeste 0 -- -- 78
2018-01-10 17:00:00 8.6 15 Noroeste 49 Noroeste 0 -- -- 74
2018-01-10 16:00:00 9.2 18 Noroeste 51 Noroeste 0 -- -- 71
2018-01-10 15:00:00 9.7 22 Noroeste 61 Noroeste 0 -- -- 70
2018-01-10 14:00:00 10.5 18 Noroeste 42 Noroeste 0 -- -- 67
2018-01-10 13:00:00 8.9 14 Noroeste 37 Noroeste 0 -- -- 74
2018-01-10 12:00:00 8.6 16 Noroeste 36 Oeste 0 -- -- 78
2018-01-10 11:00:00 7 16 Noroeste 35 Noroeste 0 -- -- 87
2018-01-10 10:00:00 5.3 4 Norte 16 Oeste 0 -- -- 92
2018-01-10 09:00:00 5 8 Noroeste 23 Noroeste 0 -- -- 93
2018-01-10 08:00:00 5.3 8 Norte 17 Norte 0 -- -- 92
2018-01-10 07:00:00 5.2 5 Norte 20 Noroeste 0 -- -- 93
2018-01-10 06:00:00 5.2 5 Noroeste 21 Noroeste 0 -- -- 93
2018-01-10 05:00:00 5 7 Norte 16 Noroeste 0 -- -- 94
2018-01-10 04:00:00 4.7 7 Noroeste 18 Noroeste 0 -- -- 94
2018-01-10 03:00:00 4.5 9 Norte 21 Norte 0 -- -- 94
2018-01-10 02:00:00 4.4 9 Norte 23 Noroeste 0 -- -- 94
2018-01-10 01:00:00 4.3 9 Norte 29 Noroeste 0 -- -- 89
2018-01-10 00:00:00 4.8 11 Noroeste 24 Oeste 0 -- -- 82
2018-01-09 23:00:00 4.8 8 Noroeste 19 Noroeste 0 -- -- 81
2018-01-09 22:00:00 4.9 7 Noroeste 18 Noroeste 0 -- -- 80
2018-01-09 21:00:00 5 3 Oeste 14 Oeste 0 -- -- 77
2018-01-09 20:00:00 5.4 3 Oeste 17 Oeste 0 -- -- 75
2018-01-09 19:00:00 5.6 5 Norte 18 Noroeste 0 -- -- 74
2018-01-09 18:00:00 5.9 10 Norte 26 Norte 0 -- -- 72
2018-01-09 17:00:00 6.5 9 Noroeste 27 Noroeste 0 -- -- 69
2018-01-09 16:00:00 6.9 14 Noroeste 44 Oeste 0 -- -- 65
2018-01-09 15:00:00 7.4 15 Noroeste 50 Noroeste 0 -- -- 64
2018-01-09 14:00:00 7.2 15 Noroeste 41 Oeste 0 -- -- 66
2018-01-09 13:00:00 6.9 14 Noroeste 40 Noroeste 0 -- -- 67
2018-01-09 12:00:00 5.8 18 Noroeste 44 Oeste 0 -- -- 72
2018-01-09 11:00:00 3.8 13 Noroeste 37 Norte 0 -- -- 78
2018-01-09 10:00:00 1.2 15 Noroeste 33 Noroeste 0 -- -- 86
2018-01-09 09:00:00 -0.4 11 Noroeste 28 Noroeste 0 -- -- 91
2018-01-09 08:00:00 -0.6 8 Noroeste 27 Noroeste 0 -- -- 92
2018-01-09 07:00:00 0 12 Noroeste 28 Noroeste 0 -- -- 92
2018-01-09 06:00:00 0.3 9 Noroeste 24 Noroeste 0 -- -- 91
2018-01-09 05:00:00 1 8 Noroeste 21 Noroeste 0 -- -- 89
2018-01-09 04:00:00 1.4 8 Noroeste 19 Norte 0 -- -- 88
2018-01-09 03:00:00 1.8 6 Noroeste 17 Norte 0 -- -- 86
2018-01-09 02:00:00 1.7 7 Noroeste 20 Noroeste 0 -- -- 88
2018-01-09 01:00:00 2.1 5 Noroeste 19 Noroeste 0 -- -- 85
2018-01-09 00:00:00 1.7 5 Noroeste 12 Noroeste 0 -- -- 87
2018-01-08 23:00:00 2 6 Noroeste 13 Noroeste 0 -- -- 87
2018-01-08 22:00:00 2 5 Noroeste 11 Noroeste 0 -- -- 87
2018-01-08 21:00:00 2.4 5 Noroeste 12 Noroeste 0 -- -- 85
2018-01-08 20:00:00 2.8 5 Noroeste 10 Noroeste 0 -- -- 84
2018-01-08 19:00:00 4.3 3 Noroeste 6 Noroeste 0 -- -- 79
2018-01-08 18:00:00 7.3 0 Calma 11 Oeste 0 -- -- 69
2018-01-08 17:00:00 9.5 5 Noroeste 13 Oeste 0 -- -- 60
2018-01-08 16:00:00 9.4 3 Sur 13 Sudeste 0 -- -- 58
2018-01-08 15:00:00 10 4 Sur 13 Sudeste 0 -- -- 55
2018-01-08 14:00:00 9.8 4 Sur 13 Sudeste 0 -- -- 57
2018-01-08 13:00:00 8.6 2 Sur 9 Sur 0 -- -- 69
2018-01-08 12:00:00 6.7 0 Calma 7 Este 0 -- -- 82
2018-01-08 11:00:00 4.7 0 Calma 10 Noroeste 0 -- -- 94
2018-01-08 10:00:00 1.3 3 Norte 9 Noroeste 0 -- -- 99
2018-01-08 09:00:00 -0.2 3 Norte 8 Norte 0 -- -- 98
2018-01-08 08:00:00 0.2 3 Norte 8 Norte 0 -- -- 97
2018-01-08 07:00:00 1 2 Norte 4 Norte 0 -- -- 96
2018-01-08 06:00:00 1.8 2 Norte 5 Noroeste 0 -- -- 97
2018-01-08 05:00:00 1.5 0 Calma 4 Norte 0 -- -- 97
2018-01-08 04:00:00 1.7 0 Calma 4 Norte 0 -- -- 95
2018-01-08 03:00:00 1.5 0 Calma 5 Noroeste 0 -- -- 96
2018-01-08 02:00:00 0.5 0 Calma 4 Norte 0 -- -- 96
2018-01-08 01:00:00 0.5 0 Calma 6 Norte 0 -- -- 94
2018-01-08 00:00:00 0.3 3 Norte 9 Noroeste 0 -- -- 94
2018-01-07 23:00:00 0.3 3 Noroeste 6 Norte 0 -- -- 93
2018-01-07 22:00:00 0.7 0 Calma 5 Norte 0 -- -- 91
2018-01-07 21:00:00 1.4 0 Calma 4 Noroeste 0 -- -- 89
2018-01-07 20:00:00 3 0 Calma 2 Norte 0 -- -- 83
2018-01-07 19:00:00 4.8 0 Calma 5 Sudeste 0 -- -- 76
2018-01-07 18:00:00 6.6 3 Sudeste 17 Este 0 -- -- 70
2018-01-07 17:00:00 7.4 4 Sudeste 17 Sudeste 0 -- -- 63
2018-01-07 16:00:00 7.9 3 Este 17 Este 0 -- -- 60
2018-01-07 15:00:00 7.4 0 Calma 9 Noroeste 0 -- -- 67
2018-01-07 14:00:00 6.8 4 Noroeste 12 Noroeste 0 -- -- 68
2018-01-07 13:00:00 6.1 3 Noroeste 16 Oeste 0 -- -- 75
2018-01-07 12:00:00 5.1 7 Noroeste 21 Oeste 0 -- -- 76
2018-01-07 11:00:00 4.5 6 Noroeste 20 Oeste 0 -- -- 81
2018-01-07 10:00:00 3 5 Oeste 13 Norte 0 -- -- 93
2018-01-07 09:00:00 2.3 6 Norte 21 Noroeste 0 -- -- 93
2018-01-07 08:00:00 2.1 3 Noroeste 18 Norte 0 -- -- 94
2018-01-07 07:00:00 2.2 7 Noroeste 22 Oeste 0 -- -- 93
2018-01-07 06:00:00 2.2 6 Noroeste 28 Noroeste 0 -- -- 93
2018-01-07 05:00:00 2.4 9 Noroeste 23 Oeste 0 -- -- 91
2018-01-07 04:00:00 2.7 10 Noroeste 30 Noroeste 0 -- -- 89
2018-01-07 03:00:00 3.1 9 Noroeste 31 Norte 0 -- -- 89
2018-01-07 02:00:00 3.1 11 Noroeste 28 Oeste 0 -- -- 90
2018-01-07 01:00:00 3.1 9 Noroeste 32 Noroeste 0 -- -- 90
2018-01-07 00:00:00 3 13 Noroeste 31 Noroeste 0 -- -- 92
2018-01-06 23:00:00 3.1 13 Noroeste 31 Oeste 0 -- -- 93
2018-01-06 22:00:00 2.9 13 Noroeste 32 Noroeste 0 -- -- 94
2018-01-06 21:00:00 3.7 15 Noroeste 34 Noroeste 0 -- -- 94
2018-01-06 20:00:00 5 10 Noroeste 25 Oeste 0 -- -- 94
2018-01-06 19:00:00 6.3 0 Calma 12 Este 6.6 -- -- 95
2018-01-06 18:00:00 7 0 Calma 36 Sur 5.2 -- -- 88
2018-01-06 17:00:00 9.7 6 Sudeste 18 Sudeste 0 -- -- 90
2018-01-06 16:00:00 9.8 5 Sudeste 21 Sudeste 0 -- -- 90
2018-01-06 15:00:00 9.9 9 Sudeste 23 Sudeste 0 -- -- 88
2018-01-06 14:00:00 9.9 8 Sudeste 26 Este 0 -- -- 89
2018-01-06 13:00:00 10 6 Sudeste 17 Sudeste 0 -- -- 88
2018-01-06 12:00:00 9.5 4 Sur 15 Sudeste 0 -- -- 88
2018-01-06 11:00:00 7.7 0 Calma 7 Sudeste 0 -- -- 89
2018-01-06 10:00:00 5 0 Calma 5 Noroeste 0 -- -- 87
2018-01-06 09:00:00 3.6 0 Calma 3 Norte 0 -- -- 90
2018-01-06 08:00:00 3.3 0 Calma 3 Sudoeste 0 -- -- 89
2018-01-06 07:00:00 3.3 0 Calma 6 Noroeste 0 -- -- 88
2018-01-06 06:00:00 3.2 2 Norte 5 Norte 0 -- -- 89
2018-01-06 05:00:00 3.5 2 Noroeste 6 Noroeste 0 -- -- 88
2018-01-06 04:00:00 4.6 0 Calma 11 Noroeste 0 -- -- 84
2018-01-06 03:00:00 5.4 6 Noroeste 12 Noroeste 0 -- -- 84
2018-01-06 02:00:00 5.2 3 Noroeste 10 Oeste 0 -- -- 84
2018-01-06 01:00:00 5.8 5 Noroeste 16 Noroeste 0 -- -- 84
2018-01-06 00:00:00 6.5 5 Noroeste 21 Noroeste 0 -- -- 81
2018-01-05 23:00:00 7 8 Noroeste 17 Oeste 0 -- -- 78
2018-01-05 22:00:00 7.1 2 Noroeste 10 Oeste 0 -- -- 76
2018-01-05 21:00:00 8.9 2 Sudeste 15 Oeste 0 -- -- 71
2018-01-05 20:00:00 9.6 5 Oeste 27 Oeste 0 -- -- 67
2018-01-05 19:00:00 9.9 5 Oeste 26 Noroeste 0 -- -- 68
2018-01-05 18:00:00 10.8 10 Noroeste 36 Oeste 0 -- -- 63
2018-01-05 17:00:00 11.8 15 Noroeste 53 Oeste 0 -- -- 59
2018-01-05 16:00:00 12.7 16 Noroeste 57 Oeste 0 -- -- 55
2018-01-05 15:00:00 12.9 20 Oeste 57 Oeste 0 -- -- 54
2018-01-05 14:00:00 12.7 21 Noroeste 52 Noroeste 0 -- -- 57
2018-01-05 13:00:00 12.3 27 Noroeste 64 Noroeste 0 -- -- 66
2018-01-05 12:00:00 12.3 29 Noroeste 61 Noroeste 0 -- -- 61
2018-01-05 11:00:00 11.6 25 Noroeste 62 Oeste 0 -- -- 68
2018-01-05 10:00:00 10.6 22 Noroeste 60 Oeste 0 -- -- 69
2018-01-05 09:00:00 9.6 25 Noroeste 54 Noroeste 0 -- -- 73
2018-01-05 08:00:00 9.7 17 Noroeste 47 Noroeste 0 -- -- 73
2018-01-05 07:00:00 9.9 14 Noroeste 44 Oeste 0 -- -- 72
2018-01-05 06:00:00 10.3 14 Noroeste 43 Noroeste 0 -- -- 71
2018-01-05 05:00:00 10.1 15 Noroeste 45 Oeste 0 -- -- 77
2018-01-05 04:00:00 10.3 14 Noroeste 40 Noroeste 0 -- -- 78
2018-01-05 03:00:00 10.5 22 Noroeste 60 Noroeste 0 -- -- 76
2018-01-05 02:00:00 10.8 29 Noroeste 54 Noroeste 0 -- -- 76
2018-01-05 01:00:00 10.9 26 Noroeste 56 Noroeste 0 -- -- 79
2018-01-05 00:00:00 11 16 Noroeste 41 Oeste 0 -- -- 80
2018-01-04 23:00:00 11.2 14 Noroeste 37 Noroeste 0 -- -- 80
2018-01-04 22:00:00 10.8 11 Noroeste 32 Noroeste 0 -- -- 82
2018-01-04 21:00:00 10.9 12 Noroeste 42 Noroeste 0 -- -- 77
2018-01-04 20:00:00 11.4 17 Noroeste 47 Noroeste 0 -- -- 73
2018-01-04 19:00:00 11.5 14 Noroeste 44 Noroeste 0 -- -- 73
2018-01-04 18:00:00 12.1 21 Noroeste 52 Oeste 0 -- -- 74
2018-01-04 17:00:00 12.8 20 Noroeste 50 Noroeste 0 -- -- 74
2018-01-04 16:00:00 13.4 15 Noroeste 58 Oeste 0 -- -- 72
2018-01-04 15:00:00 13.7 22 Noroeste 62 Oeste 0 -- -- 72
2018-01-04 14:00:00 13.7 27 Noroeste 63 Norte 0 -- -- 72
2018-01-04 13:00:00 13.6 27 Noroeste 60 Noroeste 0 -- -- 73
2018-01-04 12:00:00 13.6 18 Noroeste 54 Noroeste 0 -- -- 74
2018-01-04 11:00:00 12.7 19 Noroeste 46 Noroeste 0 -- -- 76
2018-01-04 10:00:00 11.8 18 Noroeste 41 Noroeste 0 -- -- 81
2018-01-04 09:00:00 11 14 Noroeste 42 Noroeste 0 -- -- 86
2018-01-04 08:00:00 10.6 11 Norte 30 Noroeste 0 -- -- 86
2018-01-04 07:00:00 10.8 8 Norte 35 Oeste 0 -- -- 86
2018-01-04 06:00:00 10.2 12 Noroeste 31 Noroeste 0 -- -- 89
2018-01-04 05:00:00 9.9 12 Norte 27 Noroeste 0 -- -- 90
2018-01-04 04:00:00 10.1 15 Norte 34 Noroeste 0 -- -- 90
2018-01-04 03:00:00 10.2 15 Norte 32 Noroeste 0 -- -- 89
2018-01-04 02:00:00 10.4 14 Noroeste 35 Noroeste 0 -- -- 89
2018-01-04 01:00:00 10.9 15 Noroeste 44 Noroeste 0 -- -- 86
2018-01-04 00:00:00 11.2 19 Norte 40 Norte 0 -- -- 85
2018-01-03 23:00:00 10.7 5 Norte 22 Noroeste 0 -- -- 86
2018-01-03 22:00:00 10.8 6 Noroeste 22 Noroeste 0 -- -- 85
2018-01-03 21:00:00 10.8 8 Norte 25 Noroeste 0 -- -- 85
2018-01-03 20:00:00 11 7 Norte 31 Noroeste 0 -- -- 83
2018-01-03 19:00:00 11.5 13 Noroeste 38 Norte 0 -- -- 82
2018-01-03 18:00:00 12.3 12 Noroeste 34 Oeste 0 -- -- 79
2018-01-03 17:00:00 13.7 18 Noroeste 43 Noroeste 0 -- -- 73
2018-01-03 16:00:00 14.7 17 Noroeste 39 Noroeste 0 -- -- 70
2018-01-03 15:00:00 14.3 19 Noroeste 44 Noroeste 0 -- -- 71
2018-01-03 14:00:00 13.8 17 Noroeste 49 Noroeste 0 -- -- 72
2018-01-03 13:00:00 13.6 21 Noroeste 44 Noroeste 0 -- -- 73
2018-01-03 12:00:00 12.8 15 Noroeste 47 Noroeste 0 -- -- 76
2018-01-03 11:00:00 11.2 18 Noroeste 41 Noroeste 0 -- -- 83
2018-01-03 10:00:00 9.4 17 Noroeste 41 Noroeste 0 -- -- 89
2018-01-03 09:00:00 8.8 18 Noroeste 43 Norte 0 -- -- 90
2018-01-03 08:00:00 8.4 15 Noroeste 35 Noroeste 0 -- -- 91
2018-01-03 07:00:00 8.4 18 Noroeste 36 Noroeste 0 -- -- 90
2018-01-03 06:00:00 8.1 12 Noroeste 32 Noroeste 0 -- -- 91
2018-01-03 05:00:00 8.3 14 Noroeste 32 Noroeste 0 -- -- 91
2018-01-03 04:00:00 7.9 14 Norte 28 Norte 0 -- -- 91
2018-01-03 03:00:00 7.8 15 Norte 38 Norte 0 -- -- 90
2018-01-03 02:00:00 7.4 12 Noroeste 32 Noroeste 0 -- -- 89
2018-01-03 01:00:00 7.5 15 Noroeste 35 Norte 0 -- -- 87
2018-01-03 00:00:00 7.7 12 Noroeste 31 Norte 0 -- -- 85
2018-01-02 23:00:00 8.2 15 Noroeste 36 Oeste 0 -- -- 81
2018-01-02 22:00:00 8.6 12 Noroeste 27 Noroeste 0 -- -- 80
2018-01-02 21:00:00 9.4 13 Noroeste 31 Noroeste 0 -- -- 77
2018-01-02 20:00:00 10.6 11 Norte 33 Oeste 0 -- -- 72
2018-01-02 19:00:00 11.3 9 Noroeste 31 Noroeste 0 -- -- 69
2018-01-02 18:00:00 12 13 Noroeste 41 Oeste 0 -- -- 65
2018-01-02 17:00:00 12.4 22 Noroeste 55 Oeste 0 -- -- 62
2018-01-02 16:00:00 12.8 19 Noroeste 55 Oeste 0 -- -- 60
2018-01-02 15:00:00 12 25 Noroeste 58 Noroeste 0 -- -- 64
2018-01-02 14:00:00 11.4 19 Noroeste 44 Noroeste 0 -- -- 66
2018-01-02 13:00:00 9.4 19 Noroeste 54 Noroeste 0 -- -- 73
2018-01-02 12:00:00 9.1 21 Noroeste 49 Oeste 0 -- -- 74
2018-01-02 11:00:00 8.8 15 Noroeste 42 Noroeste 0 -- -- 76
2018-01-02 10:00:00 7.7 18 Noroeste 42 Noroeste 0 -- -- 81
2018-01-02 09:00:00 6.7 17 Noroeste 36 Norte 0 -- -- 86
2018-01-02 08:00:00 6.8 13 Norte 28 Norte 0 -- -- 84
2018-01-02 07:00:00 6.9 8 Norte 26 Norte 0 -- -- 85
2018-01-02 06:00:00 6.8 9 Noroeste 26 Norte 0 -- -- 86
2018-01-02 05:00:00 7.2 6 Norte 29 Oeste 0 -- -- 84
2018-01-02 04:00:00 7.5 8 Norte 24 Oeste 0 -- -- 83
2018-01-02 03:00:00 7.8 8 Noroeste 26 Noroeste 0 -- -- 82
2018-01-02 02:00:00 7.2 6 Noroeste 27 Noroeste 0 -- -- 83
2018-01-02 01:00:00 7.4 10 Norte 33 Noroeste 0 -- -- 80
2018-01-02 00:00:00 7.5 5 Norte 29 Oeste 0 -- -- 79
2018-01-01 23:00:00 7.6 8 Noroeste 31 Noroeste 0 -- -- 75
2018-01-01 22:00:00 7.9 12 Noroeste 38 Noroeste 0 -- -- 69
2018-01-01 21:00:00 7.9 10 Noroeste 40 Oeste 0 -- -- 65
2018-01-01 20:00:00 8.6 14 Noroeste 38 Noroeste 0 -- -- 61
2018-01-01 19:00:00 9 11 Norte 35 Noroeste 0 -- -- 57
2018-01-01 18:00:00 9.6 15 Noroeste 41 Oeste 0 -- -- 55
2018-01-01 17:00:00 10.1 16 Oeste 48 Noroeste 0 -- -- 53
2018-01-01 16:00:00 10.7 15 Oeste 55 Oeste 0 -- -- 48
2018-01-01 15:00:00 10.3 16 Noroeste 53 Oeste 0 -- -- 53
2018-01-01 14:00:00 10.8 11 Oeste 42 Oeste 0 -- -- 56
2018-01-01 13:00:00 10.3 12 Oeste 31 Noroeste 0 -- -- 55
2018-01-01 12:00:00 8.2 9 Noroeste 28 Noroeste 0 -- -- 63
2018-01-01 11:00:00 6.2 11 Noroeste 28 Noroeste 0 -- -- 68
2018-01-01 10:00:00 5.1 11 Noroeste 32 Noroeste 0 -- -- 71
2018-01-01 09:00:00 3.4 11 Noroeste 31 Noroeste 0 -- -- 76
2018-01-01 08:00:00 4.2 12 Noroeste 29 Noroeste 0 -- -- 73
2018-01-01 07:00:00 4.2 6 Noroeste 24 Sudoeste 0 -- -- 72
2018-01-01 06:00:00 4.2 6 Norte 20 Noroeste 0 -- -- 74
2018-01-01 05:00:00 4.9 8 Noroeste 29 Noroeste 0 -- -- 72
2018-01-01 04:00:00 5.2 10 Noroeste 29 Noroeste 0 -- -- 73
2018-01-01 03:00:00 5.7 9 Noroeste 23 Noroeste 0 -- -- 75
2018-01-01 02:00:00 5.8 4 Noroeste 18 Noroeste 0 -- -- 77
2018-01-01 01:00:00 7.1 6 Noroeste 17 Noroeste 0 -- -- 76
2018-01-01 00:00:00 7.8 2 Sudoeste 21 Noroeste 0 -- -- 80
2017-12-31 23:00:00 8.9 6 Norte 21 Oeste 0 -- -- 78
2017-12-31 22:00:00 9.5 13 Noroeste 49 Noroeste 0 -- -- 84
2017-12-31 21:00:00 10.9 11 Noroeste 44 Norte 0 -- -- 75
2017-12-31 20:00:00 10.6 9 Noroeste 36 Noroeste 0 -- -- 73
2017-12-31 19:00:00 10.9 12 Noroeste 38 Noroeste 0 -- -- 69
2017-12-31 18:00:00 11.4 13 Noroeste 45 Noroeste 0 -- -- 62
2017-12-31 17:00:00 12.1 21 Noroeste 59 Noroeste 0 -- -- 68
2017-12-31 16:00:00 12.6 18 Noroeste 52 Noroeste 0 -- -- 66
2017-12-31 15:00:00 13.4 18 Noroeste 47 Oeste 0 -- -- 69
2017-12-31 14:00:00 12.4 21 Noroeste 50 Noroeste 0 -- -- 73
2017-12-31 13:00:00 11.5 19 Noroeste 45 Noroeste 0 -- -- 76
2017-12-31 12:00:00 10.8 20 Noroeste 43 Noroeste 0 -- -- 77
2017-12-31 11:00:00 9 14 Noroeste 38 Noroeste 0 -- -- 82
2017-12-31 10:00:00 6.9 19 Norte 34 Norte 0 -- -- 89
2017-12-31 09:00:00 5.5 15 Noroeste 37 Oeste 0 -- -- 92
2017-12-31 08:00:00 5 11 Noroeste 35 Noroeste 0 -- -- 92
2017-12-31 07:00:00 6 15 Noroeste 32 Noroeste 0 -- -- 89
2017-12-31 06:00:00 5.8 12 Noroeste 34 Noroeste 0 -- -- 90
2017-12-31 05:00:00 6.3 15 Noroeste 41 Noroeste 0 -- -- 89
2017-12-31 04:00:00 7.6 17 Noroeste 38 Noroeste 0 -- -- 84
2017-12-31 03:00:00 7.7 13 Norte 37 Norte 0 -- -- 85
2017-12-31 02:00:00 8 18 Norte 33 Noroeste 0 -- -- 87
2017-12-31 01:00:00 7.8 13 Noroeste 31 Norte 0 -- -- 88